createdAt,value
2019-04-06T00:03:53.067Z,28.70
2019-04-06T00:08:56.385Z,28.70
2019-04-06T00:14:00.714Z,31.75
2019-04-06T00:19:04.052Z,30.65
2019-04-06T00:24:07.837Z,25.72
2019-04-06T00:29:11.905Z,28.27
2019-04-06T00:34:15.470Z,32.85
2019-04-06T00:39:18.884Z,25.85
2019-04-06T00:44:22.737Z,27.73
2019-04-06T00:49:26.718Z,32.05
2019-04-06T00:54:30.168Z,30.23
2019-04-06T00:59:34.597Z,29.25
2019-04-06T01:04:37.897Z,32.20
2019-04-06T01:09:42.119Z,27.87
2019-04-06T01:14:45.466Z,31.90
2019-04-06T01:19:48.934Z,27.65
2019-04-06T01:24:52.196Z,29.40
2019-04-06T01:29:55.579Z,28.60
2019-04-06T01:34:58.911Z,31.05
2019-04-06T01:40:03.340Z,26.80
2019-04-06T01:45:08.051Z,29.15
2019-04-06T01:50:12.886Z,26.07
2019-04-06T01:55:17.028Z,25.68
2019-04-06T02:00:20.414Z,26.23
2019-04-06T02:05:23.749Z,29.48
2019-04-06T02:10:27.726Z,28.32
2019-04-06T02:15:33.896Z,32.58
2019-04-06T02:20:37.197Z,27.15
2019-04-06T02:25:40.496Z,26.90
2019-04-06T02:30:55.683Z,28.38
2019-04-06T02:36:18.610Z,28.92
2019-04-06T02:41:59.905Z,28.00
2019-04-06T02:47:03.242Z,31.55
2019-04-06T02:52:06.893Z,28.32
2019-04-06T02:57:10.326Z,30.20
2019-04-06T03:02:14.060Z,30.30
2019-04-06T03:07:19.314Z,27.35
2019-04-06T03:12:22.842Z,31.48
2019-04-06T03:17:26.182Z,31.35
2019-04-06T03:22:29.614Z,29.92
2019-04-06T03:27:33.427Z,30.72
2019-04-06T03:32:39.092Z,32.20
2019-04-06T03:37:43.100Z,27.48
2019-04-06T03:42:46.729Z,32.63
2019-04-06T03:47:50.061Z,27.70
2019-04-06T03:52:53.761Z,32.42
2019-04-06T03:57:57.205Z,29.40
2019-04-06T04:03:00.987Z,30.88
2019-04-06T04:08:04.642Z,28.52
2019-04-06T04:13:07.942Z,30.23
2019-04-06T04:18:11.539Z,28.70
2019-04-06T04:23:15.456Z,27.20
2019-04-06T04:28:18.752Z,30.12
2019-04-06T04:33:22.602Z,27.52
2019-04-06T04:38:25.998Z,24.90
2019-04-06T04:43:29.352Z,28.35
2019-04-06T04:48:32.746Z,27.90
2019-04-06T04:53:36.166Z,32.58
2019-04-06T04:58:40.535Z,26.37
2019-04-06T05:03:44.383Z,30.55
2019-04-06T05:08:47.760Z,28.05
2019-04-06T05:14:47.129Z,27.55
2019-04-06T05:19:51.452Z,27.02
2019-04-06T05:24:55.237Z,26.57
2019-04-06T05:29:58.725Z,27.98
2019-04-06T05:35:03.263Z,29.92
2019-04-06T05:40:06.724Z,30.75
2019-04-06T05:45:10.865Z,27.13
2019-04-06T05:50:14.421Z,31.80
2019-04-06T05:55:18.284Z,25.48
2019-04-06T06:00:21.826Z,28.98
2019-04-06T06:05:25.166Z,25.82
2019-04-06T06:10:29.874Z,27.27
2019-04-06T06:15:33.533Z,23.00
2019-04-06T06:20:37.299Z,30.05
2019-04-06T06:25:41.064Z,28.92
2019-04-06T06:30:47.443Z,29.77
2019-04-06T06:35:51.050Z,25.25
2019-04-06T06:40:54.466Z,24.10
2019-04-06T06:45:58.217Z,26.82
2019-04-06T06:51:02.475Z,29.02
2019-04-06T06:56:05.913Z,27.95
2019-04-06T07:01:09.446Z,22.42
2019-04-06T07:06:12.777Z,24.82
2019-04-06T07:11:16.708Z,23.32
2019-04-06T07:16:20.044Z,26.12
2019-04-06T07:21:24.173Z,27.00
2019-04-06T07:26:28.362Z,25.27
2019-04-06T07:31:32.026Z,21.85
2019-04-06T07:36:35.681Z,26.33
2019-04-06T07:41:39.124Z,20.10
2019-04-06T07:46:42.449Z,24.87
2019-04-06T07:51:45.945Z,22.32
2019-04-06T07:56:51.653Z,23.18
2019-04-06T08:01:56.502Z,22.62
2019-04-06T08:06:59.905Z,20.37
2019-04-06T08:12:03.289Z,25.25
2019-04-06T08:17:06.668Z,25.30
2019-04-06T08:22:10.173Z,19.75
2019-04-06T08:27:14.085Z,22.60
2019-04-06T08:32:17.599Z,24.25
2019-04-06T08:37:21.480Z,23.50
2019-04-06T08:42:25.564Z,24.67
2019-04-06T08:47:28.886Z,26.12
2019-04-06T08:52:32.223Z,28.57
2019-04-06T08:57:35.795Z,19.20
2019-04-06T09:02:39.388Z,19.82
2019-04-06T09:07:42.962Z,19.80
2019-04-06T09:12:46.353Z,23.07
2019-04-06T09:17:49.757Z,21.25
2019-04-06T09:22:53.782Z,22.32
2019-04-06T09:27:58.312Z,22.93
2019-04-06T09:33:01.710Z,20.40
2019-04-06T09:38:07.625Z,24.12
2019-04-06T09:43:11.184Z,18.90
2019-04-06T09:48:35.366Z,28.05
2019-04-06T09:54:06.319Z,29.32
2019-04-06T09:59:36.277Z,24.63
2019-04-06T10:05:00.406Z,26.20
2019-04-06T10:10:11.821Z,29.30
2019-04-06T10:15:37.790Z,20.23
2019-04-06T10:20:56.305Z,21.62
2019-04-06T10:26:25.354Z,19.02
2019-04-06T10:31:47.359Z,23.02
2019-04-06T10:37:01.001Z,23.20
2019-04-06T10:42:11.009Z,20.40
2019-04-06T10:47:29.467Z,21.93
2019-04-06T10:52:48.447Z,24.23
2019-04-06T10:58:24.728Z,18.87
2019-04-06T11:03:35.879Z,21.93
2019-04-06T11:09:07.943Z,26.30
2019-04-06T11:14:31.159Z,23.45
2019-04-06T11:20:09.554Z,22.73
2019-04-06T11:25:22.031Z,22.70
2019-04-06T11:30:43.642Z,18.17
2019-04-06T11:36:22.022Z,21.73
2019-04-06T11:41:33.172Z,23.32
2019-04-06T11:46:53.259Z,23.98
2019-04-06T11:52:05.385Z,19.23
2019-04-06T11:57:28.540Z,20.32
2019-04-06T12:02:40.937Z,24.70
2019-04-06T12:07:52.857Z,22.13
2019-04-06T12:13:27.898Z,25.57
2019-04-06T12:18:38.590Z,25.43
2019-04-06T12:24:16.774Z,20.57
2019-04-06T12:29:45.301Z,20.72
2019-04-06T12:34:58.570Z,27.02
2019-04-06T12:40:22.594Z,16.48
2019-04-06T12:45:44.561Z,20.17
2019-04-06T12:51:08.864Z,20.12
2019-04-06T12:56:34.490Z,28.55
2019-04-06T13:01:52.880Z,22.37
2019-04-06T13:07:25.819Z,20.75
2019-04-06T13:12:54.574Z,20.10
2019-04-06T13:18:20.700Z,20.80
2019-04-06T13:23:48.692Z,18.48
2019-04-06T13:29:01.739Z,24.27
2019-04-06T13:34:23.031Z,20.52
2019-04-06T13:39:40.101Z,20.55
2019-04-06T13:44:50.444Z,23.07
2019-04-06T13:50:17.375Z,28.85
2019-04-06T13:55:43.334Z,18.82
2019-04-06T14:01:17.605Z,21.42
2019-04-06T14:06:34.701Z,20.90
2019-04-06T14:11:57.989Z,17.27
2019-04-06T14:17:10.343Z,24.60
2019-04-06T14:22:36.328Z,16.23
2019-04-06T14:27:53.465Z,17.30
2019-04-06T14:33:16.754Z,23.57
2019-04-06T14:38:49.067Z,19.55
2019-04-06T14:43:57.908Z,17.27
2019-04-06T14:49:31.280Z,17.90
2019-04-06T14:54:41.620Z,20.95
2019-04-06T15:00:23.032Z,19.25
2019-04-06T15:05:58.323Z,21.35
2019-04-06T15:11:21.713Z,21.95
2019-04-06T15:16:42.396Z,21.85
2019-04-06T15:21:53.370Z,19.15
2019-04-06T15:27:14.607Z,18.60
2019-04-06T15:32:46.390Z,19.82
2019-04-06T15:38:07.547Z,16.57
2019-04-06T15:43:42.714Z,17.70
2019-04-06T15:49:05.893Z,22.07
2019-04-06T15:54:19.018Z,21.12
2019-04-06T15:59:30.208Z,20.30
2019-04-06T16:04:45.737Z,26.20
2019-04-06T16:10:28.323Z,22.50
2019-04-06T16:15:58.223Z,25.77
2019-04-06T16:21:21.220Z,18.62
2019-04-06T16:26:34.596Z,25.43
2019-04-06T16:31:57.531Z,29.45
2019-04-06T16:37:13.293Z,22.05
2019-04-06T16:42:33.848Z,22.15
2019-04-06T16:48:12.143Z,22.77
2019-04-06T16:53:41.754Z,25.62
2019-04-06T16:58:52.332Z,23.77
2019-04-06T17:04:13.548Z,23.67
2019-04-06T17:09:52.434Z,26.10
2019-04-06T17:15:09.571Z,24.70
2019-04-06T17:20:28.646Z,31.42
2019-04-06T17:26:10.518Z,23.18
2019-04-06T17:31:51.861Z,28.35
2019-04-06T17:37:06.483Z,47.78
2019-04-06T17:42:16.765Z,42.98
2019-04-06T17:47:29.243Z,30.37
2019-04-06T17:53:01.899Z,34.88
2019-04-06T17:58:37.320Z,35.28
2019-04-06T18:03:55.228Z,35.40
2019-04-06T18:09:10.022Z,42.40
2019-04-06T18:14:15.519Z,43.30
2019-04-06T18:19:20.686Z,33.45
2019-04-06T18:24:24.076Z,34.83
2019-04-06T18:29:27.559Z,39.18
2019-04-06T18:34:31.028Z,28.87
2019-04-06T18:39:36.314Z,28.10
2019-04-06T18:44:40.714Z,27.40
2019-04-06T18:49:44.620Z,27.27
2019-04-06T18:54:47.959Z,24.00
2019-04-06T18:59:51.510Z,29.23
2019-04-06T19:04:55.254Z,27.82
2019-04-06T19:09:59.155Z,30.08
2019-04-06T19:15:03.339Z,26.48
2019-04-06T19:20:08.930Z,25.62
2019-04-06T19:25:12.685Z,27.82
2019-04-06T19:30:17.210Z,27.48
2019-04-06T19:38:34.717Z,27.93
2019-04-06T19:43:38.173Z,26.97
2019-04-06T19:48:42.622Z,25.90
2019-04-06T19:53:46.714Z,28.05
2019-04-06T19:58:50.339Z,27.93
2019-04-06T20:03:53.726Z,32.00
2019-04-06T20:08:58.280Z,31.68
2019-04-06T20:14:02.415Z,28.00
2019-04-06T20:19:05.805Z,25.97
2019-04-06T20:24:10.589Z,32.50
2019-04-06T20:29:14.023Z,30.15
2019-04-06T20:34:17.535Z,28.52
2019-04-06T20:39:20.997Z,31.23
2019-04-06T20:44:27.792Z,37.63
2019-04-06T20:49:31.190Z,32.20
2019-04-06T20:54:35.485Z,30.85
2019-04-06T20:59:38.744Z,43.20
2019-04-06T21:04:42.784Z,36.63
2019-04-06T21:09:46.237Z,35.38
2019-04-06T21:14:49.539Z,37.17
2019-04-06T21:19:52.886Z,38.80
2019-04-06T21:24:56.593Z,39.60
2019-04-06T21:29:59.961Z,35.23
2019-04-06T21:35:04.655Z,39.60
2019-04-06T21:40:10.179Z,47.78
2019-04-06T21:45:14.035Z,98.50
2019-04-06T21:50:17.526Z,78.90
2019-04-06T21:55:20.921Z,51.95
2019-04-06T22:00:38.426Z,39.65
2019-04-06T22:05:42.720Z,38.15
2019-04-06T22:10:47.441Z,38.17
2019-04-06T22:15:50.982Z,38.35
2019-04-06T22:20:54.771Z,33.53
2019-04-06T22:25:58.214Z,42.35
2019-04-06T22:31:02.400Z,34.63
2019-04-06T22:36:06.655Z,37.50
2019-04-06T22:41:10.171Z,34.55
2019-04-06T22:46:14.663Z,39.73
2019-04-06T22:51:18.030Z,39.33
2019-04-06T22:56:21.894Z,45.83
2019-04-06T23:01:27.674Z,39.65
2019-04-06T23:06:38.152Z,37.38
2019-04-06T23:11:41.535Z,38.63
2019-04-06T23:16:45.980Z,37.53
2019-04-06T23:21:49.723Z,39.33
2019-04-06T23:26:53.193Z,42.67
2019-04-06T23:31:56.822Z,41.80
2019-04-06T23:37:00.767Z,43.02
2019-04-06T23:42:04.657Z,45.60
2019-04-06T23:47:08.557Z,43.58
2019-04-06T23:52:12.197Z,42.20
2019-04-06T23:57:15.532Z,42.62
